SWA2890 KDCA-KBNA
Flight info
| Callsign | SWA2890 |
|---|---|
| Flight time | 1h 29m |
| Altitude | 40000 |
| Route | REBLL5 OTTTO Q80 DEWAK GROAT PASLY5 |
| Aircraft | B738/M-SADE2E3GIJ4RWZ/LB1D1 |
Departure
| Time | 2026-05-06 00:55 |
|---|---|
| Airport | Ronald Reagan Washington National Airport (KDCA) |
Arrival
| Time | 2026-05-06 02:24 |
|---|---|
| Airport | Nashville International Airport (KBNA) |
| Time | Latitude | Longitude | Altitude | Speed | Heading |
|---|---|---|---|---|---|
| 2026-05-06 00:25 | 38.84636 | -77.04246 | 24 ft | 0 kts | 350° |
| 2026-05-06 00:37 | 38.84629 | -77.04244 | 28 ft | 3 kts | 351° |
| 2026-05-06 00:37 | 38.84609 | -77.04242 | 26 ft | 3 kts | 359° |
| 2026-05-06 00:38 | 38.84589 | -77.04243 | 27 ft | 3 kts | 17° |
| 2026-05-06 00:38 | 38.84573 | -77.04253 | 29 ft | 3 kts | 55° |
| 2026-05-06 00:38 | 38.84568 | -77.04264 | 29 ft | 0 kts | 81° |
| 2026-05-06 00:45 | 38.84569 | -77.04256 | 30 ft | 2 kts | 81° |
| 2026-05-06 00:45 | 38.84572 | -77.04232 | 30 ft | 3 kts | 82° |
| 2026-05-06 00:46 | 38.84576 | -77.04199 | 28 ft | 5 kts | 80° |
| 2026-05-06 00:46 | 38.84591 | -77.04119 | 26 ft | 14 kts | 72° |
| 2026-05-06 00:46 | 38.84674 | -77.04010 | 25 ft | 21 kts | 27° |
| 2026-05-06 00:46 | 38.84815 | -77.03945 | 21 ft | 22 kts | 4° |
| 2026-05-06 00:47 | 38.84848 | -77.03946 | 21 ft | 1 kts | 358° |
| 2026-05-06 00:47 | 38.84865 | -77.03947 | 20 ft | 5 kts | 356° |
| 2026-05-06 00:47 | 38.84938 | -77.03954 | 20 ft | 18 kts | 355° |
| 2026-05-06 00:47 | 38.85118 | -77.03973 | 20 ft | 34 kts | 355° |
| 2026-05-06 00:48 | 38.85362 | -77.04001 | 23 ft | 35 kts | 356° |
| 2026-05-06 00:48 | 38.85543 | -77.04026 | 29 ft | 17 kts | 347° |
| 2026-05-06 00:48 | 38.85646 | -77.04044 | 28 ft | 11 kts | 354° |
| 2026-05-06 00:48 | 38.85665 | -77.04046 | 28 ft | 0 kts | 356° |
| 2026-05-06 00:49 | 38.85666 | -77.04046 | 28 ft | 1 kts | 355° |
| 2026-05-06 00:50 | 38.85685 | -77.04061 | 29 ft | 0 kts | 327° |
| 2026-05-06 00:51 | 38.85686 | -77.04061 | 29 ft | 1 kts | 328° |
| 2026-05-06 00:51 | 38.85716 | -77.04075 | 29 ft | 8 kts | 349° |
| 2026-05-06 00:51 | 38.85801 | -77.04062 | 27 ft | 16 kts | 6° |
| 2026-05-06 00:52 | 38.85915 | -77.04061 | 28 ft | 11 kts | 13° |
| 2026-05-06 00:52 | 38.85984 | -77.04028 | 27 ft | 10 kts | 25° |
| 2026-05-06 00:52 | 38.85993 | -77.04023 | 28 ft | 0 kts | 25° |
| 2026-05-06 00:52 | 38.85994 | -77.04022 | 28 ft | 1 kts | 25° |
| 2026-05-06 00:53 | 38.86034 | -77.03992 | 25 ft | 12 kts | 35° |
| 2026-05-06 00:53 | 38.86077 | -77.03883 | 22 ft | 12 kts | 123° |
| 2026-05-06 00:53 | 38.86045 | -77.03867 | 25 ft | 0 kts | 172° |
| 2026-05-06 00:54 | 38.86022 | -77.03863 | 24 ft | 20 kts | 174° |
| 2026-05-06 00:54 | 38.85602 | -77.03822 | 26 ft | 99 kts | 175° |
| 2026-05-06 00:55 | 38.84689 | -77.03724 | 99 ft | 157 kts | 175° |
| 2026-05-06 00:55 | 38.83548 | -77.03572 | 735 ft | 176 kts | 176° |
| 2026-05-06 00:55 | 38.82298 | -77.03497 | 1576 ft | 175 kts | 185° |
| 2026-05-06 00:55 | 38.81095 | -77.03505 | 2555 ft | 171 kts | 186° |
| 2026-05-06 00:56 | 38.79890 | -77.03514 | 3185 ft | 186 kts | 186° |
| 2026-05-06 00:56 | 38.78491 | -77.03514 | 3514 ft | 208 kts | 185° |
| 2026-05-06 00:56 | 38.77030 | -77.03681 | 4067 ft | 217 kts | 201° |
| 2026-05-06 00:56 | 38.75716 | -77.04749 | 4598 ft | 232 kts | 226° |
| 2026-05-06 00:57 | 38.74873 | -77.06543 | 5446 ft | 242 kts | 250° |
| 2026-05-06 00:57 | 38.74640 | -77.08704 | 6512 ft | 247 kts | 261° |
| 2026-05-06 00:57 | 38.74629 | -77.10945 | 7440 ft | 256 kts | 270° |
| 2026-05-06 00:57 | 38.74839 | -77.13226 | 8400 ft | 261 kts | 274° |
| 2026-05-06 00:58 | 38.75098 | -77.15523 | 9381 ft | 264 kts | 275° |
| 2026-05-06 00:58 | 38.75367 | -77.17868 | 10287 ft | 269 kts | 275° |
| 2026-05-06 00:58 | 38.75643 | -77.20342 | 10653 ft | 294 kts | 275° |
| 2026-05-06 00:58 | 38.75936 | -77.23062 | 10874 ft | 321 kts | 275° |
| 2026-05-06 00:59 | 38.76246 | -77.26011 | 11119 ft | 344 kts | 275° |
| 2026-05-06 00:59 | 38.76567 | -77.29090 | 11774 ft | 352 kts | 275° |
| 2026-05-06 00:59 | 38.76890 | -77.32223 | 12602 ft | 355 kts | 275° |
| 2026-05-06 00:59 | 38.77210 | -77.35362 | 13484 ft | 358 kts | 275° |
| 2026-05-06 01:00 | 38.77531 | -77.38538 | 14239 ft | 361 kts | 275° |
| 2026-05-06 01:00 | 38.77852 | -77.41744 | 14943 ft | 365 kts | 275° |
| 2026-05-06 01:00 | 38.78174 | -77.44989 | 15650 ft | 368 kts | 274° |
| 2026-05-06 01:00 | 38.78498 | -77.48263 | 16370 ft | 372 kts | 274° |
| 2026-05-06 01:01 | 38.78823 | -77.51575 | 17065 ft | 376 kts | 274° |
| 2026-05-06 01:01 | 38.79151 | -77.54912 | 17751 ft | 379 kts | 274° |
| 2026-05-06 01:01 | 38.79480 | -77.58285 | 18391 ft | 383 kts | 274° |
| 2026-05-06 01:01 | 38.79813 | -77.61693 | 19007 ft | 386 kts | 274° |
| 2026-05-06 01:02 | 38.80145 | -77.65102 | 19676 ft | 386 kts | 274° |
| 2026-05-06 01:02 | 38.80477 | -77.68525 | 20341 ft | 387 kts | 275° |
| 2026-05-06 01:02 | 38.80810 | -77.71957 | 20961 ft | 389 kts | 275° |
| 2026-05-06 01:02 | 38.81142 | -77.75404 | 21546 ft | 391 kts | 275° |
| 2026-05-06 01:03 | 38.81472 | -77.78838 | 22102 ft | 393 kts | 275° |
| 2026-05-06 01:03 | 38.81805 | -77.82322 | 22634 ft | 395 kts | 275° |
| 2026-05-06 01:03 | 38.82140 | -77.85839 | 23170 ft | 397 kts | 275° |
| 2026-05-06 01:03 | 38.82399 | -77.89365 | 23659 ft | 398 kts | 270° |
| 2026-05-06 01:04 | 38.82229 | -77.92921 | 24068 ft | 401 kts | 262° |
| 2026-05-06 01:04 | 38.81656 | -77.96431 | 24476 ft | 404 kts | 258° |
| 2026-05-06 01:04 | 38.81019 | -77.99975 | 24771 ft | 409 kts | 258° |
| 2026-05-06 01:04 | 38.80386 | -78.03544 | 25175 ft | 412 kts | 258° |
| 2026-05-06 01:05 | 38.79758 | -78.07121 | 25710 ft | 410 kts | 258° |
| 2026-05-06 01:05 | 38.79133 | -78.10703 | 26050 ft | 414 kts | 259° |
| 2026-05-06 01:05 | 38.78503 | -78.14327 | 26371 ft | 418 kts | 259° |
| 2026-05-06 01:05 | 38.77869 | -78.17978 | 26734 ft | 420 kts | 259° |
| 2026-05-06 01:06 | 38.77232 | -78.21642 | 27110 ft | 422 kts | 259° |
| 2026-05-06 01:06 | 38.76600 | -78.25275 | 27492 ft | 424 kts | 259° |
| 2026-05-06 01:06 | 38.75955 | -78.28974 | 27810 ft | 426 kts | 259° |
| 2026-05-06 01:06 | 38.75303 | -78.32707 | 28045 ft | 431 kts | 259° |
| 2026-05-06 01:07 | 38.74647 | -78.36459 | 28362 ft | 433 kts | 259° |
| 2026-05-06 01:07 | 38.73985 | -78.40229 | 28721 ft | 434 kts | 259° |
| 2026-05-06 01:07 | 38.73323 | -78.43992 | 29170 ft | 432 kts | 259° |
| 2026-05-06 01:07 | 38.72662 | -78.47741 | 29688 ft | 430 kts | 259° |
| 2026-05-06 01:08 | 38.72006 | -78.51455 | 30229 ft | 426 kts | 259° |
| 2026-05-06 01:08 | 38.71352 | -78.55141 | 30660 ft | 425 kts | 260° |
| 2026-05-06 01:08 | 38.70699 | -78.58836 | 30948 ft | 426 kts | 260° |
| 2026-05-06 01:08 | 38.70042 | -78.62544 | 31296 ft | 426 kts | 260° |
| 2026-05-06 01:09 | 38.69386 | -78.66233 | 31706 ft | 424 kts | 261° |
| 2026-05-06 01:09 | 38.68733 | -78.69894 | 32173 ft | 420 kts | 262° |
| 2026-05-06 01:09 | 38.68081 | -78.73534 | 32704 ft | 416 kts | 262° |
| 2026-05-06 01:09 | 38.67435 | -78.77138 | 33135 ft | 414 kts | 263° |
| 2026-05-06 01:10 | 38.66800 | -78.80683 | 33515 ft | 413 kts | 263° |
| 2026-05-06 01:10 | 38.66158 | -78.84260 | 33900 ft | 411 kts | 263° |
| 2026-05-06 01:10 | 38.65517 | -78.87812 | 34330 ft | 408 kts | 263° |
| 2026-05-06 01:10 | 38.64880 | -78.91346 | 34642 ft | 407 kts | 263° |
| 2026-05-06 01:11 | 38.64243 | -78.94877 | 34932 ft | 406 kts | 263° |
| 2026-05-06 01:11 | 38.63608 | -78.98387 | 35254 ft | 404 kts | 264° |
| 2026-05-06 01:11 | 38.62974 | -79.01886 | 35608 ft | 402 kts | 264° |
| 2026-05-06 01:11 | 38.62341 | -79.05369 | 35917 ft | 401 kts | 264° |
| 2026-05-06 01:12 | 38.61713 | -79.08818 | 36394 ft | 394 kts | 264° |
| 2026-05-06 01:12 | 38.61093 | -79.12203 | 36864 ft | 390 kts | 264° |
| 2026-05-06 01:12 | 38.60476 | -79.15580 | 37118 ft | 390 kts | 264° |
| 2026-05-06 01:12 | 38.59859 | -79.18970 | 37321 ft | 392 kts | 264° |
| 2026-05-06 01:13 | 38.59249 | -79.22309 | 37604 ft | 391 kts | 264° |
| 2026-05-06 01:13 | 38.58630 | -79.25687 | 37964 ft | 388 kts | 264° |
| 2026-05-06 01:13 | 38.58013 | -79.29035 | 38322 ft | 386 kts | 264° |
| 2026-05-06 01:13 | 38.57396 | -79.32388 | 38557 ft | 385 kts | 264° |
| 2026-05-06 01:14 | 38.56173 | -79.38999 | 39075 ft | 382 kts | 264° |
| 2026-05-06 01:14 | 38.55562 | -79.42313 | 39199 ft | 383 kts | 264° |
| 2026-05-06 01:14 | 38.54949 | -79.45633 | 39390 ft | 383 kts | 264° |
| 2026-05-06 01:15 | 38.53719 | -79.52236 | 39626 ft | 380 kts | 264° |
| 2026-05-06 01:15 | 38.53107 | -79.55520 | 39822 ft | 380 kts | 264° |
| 2026-05-06 01:15 | 38.52495 | -79.58808 | 39900 ft | 382 kts | 264° |
| 2026-05-06 01:16 | 38.51261 | -79.65395 | 39926 ft | 385 kts | 264° |
| 2026-05-06 01:16 | 38.50017 | -79.72027 | 39905 ft | 382 kts | 264° |
| 2026-05-06 01:17 | 38.48775 | -79.78623 | 39921 ft | 381 kts | 264° |
| 2026-05-06 01:17 | 38.47535 | -79.85185 | 39923 ft | 379 kts | 263° |
| 2026-05-06 01:18 | 38.46296 | -79.91718 | 39936 ft | 378 kts | 264° |
| 2026-05-06 01:18 | 38.45066 | -79.98193 | 39920 ft | 378 kts | 264° |
| 2026-05-06 01:19 | 38.43824 | -80.04703 | 39923 ft | 378 kts | 264° |
| 2026-05-06 01:19 | 38.42577 | -80.11206 | 39925 ft | 379 kts | 264° |
| 2026-05-06 01:20 | 38.41524 | -80.16705 | 39915 ft | 382 kts | 264° |
| 2026-05-06 01:20 | 38.40266 | -80.23245 | 39927 ft | 381 kts | 263° |
| 2026-05-06 01:21 | 38.38991 | -80.29827 | 39919 ft | 379 kts | 263° |
| 2026-05-06 01:21 | 38.37727 | -80.36343 | 39916 ft | 378 kts | 263° |
| 2026-05-06 01:22 | 38.36465 | -80.42830 | 39915 ft | 377 kts | 263° |
| 2026-05-06 01:22 | 38.35215 | -80.49242 | 39917 ft | 376 kts | 263° |
| 2026-05-06 01:23 | 38.33948 | -80.55717 | 39904 ft | 376 kts | 263° |
| 2026-05-06 01:23 | 38.32676 | -80.62199 | 39896 ft | 377 kts | 263° |
| 2026-05-06 01:24 | 38.31401 | -80.68673 | 39904 ft | 377 kts | 263° |
| 2026-05-06 01:24 | 38.30118 | -80.75167 | 39903 ft | 378 kts | 263° |
| 2026-05-06 01:25 | 38.28834 | -80.81661 | 39870 ft | 378 kts | 263° |
| 2026-05-06 01:25 | 38.27552 | -80.88114 | 39887 ft | 378 kts | 263° |
| 2026-05-06 01:26 | 38.26256 | -80.94600 | 39898 ft | 379 kts | 263° |
| 2026-05-06 01:26 | 38.24952 | -81.01113 | 39904 ft | 380 kts | 263° |
| 2026-05-06 01:27 | 38.23642 | -81.07644 | 39885 ft | 381 kts | 262° |
| 2026-05-06 01:27 | 38.22324 | -81.14148 | 39863 ft | 380 kts | 262° |
| 2026-05-06 01:28 | 38.20947 | -81.20614 | 39903 ft | 378 kts | 263° |
| 2026-05-06 01:28 | 38.19679 | -81.27071 | 39891 ft | 379 kts | 263° |
| 2026-05-06 01:29 | 38.18382 | -81.33588 | 39898 ft | 380 kts | 262° |
| 2026-05-06 01:29 | 38.17066 | -81.40094 | 39904 ft | 381 kts | 262° |
| 2026-05-06 01:30 | 38.15735 | -81.46607 | 39900 ft | 380 kts | 262° |
| 2026-05-06 01:30 | 38.14405 | -81.53113 | 39892 ft | 380 kts | 262° |
| 2026-05-06 01:31 | 38.13077 | -81.59572 | 39889 ft | 379 kts | 262° |
| 2026-05-06 01:31 | 38.11732 | -81.66044 | 39898 ft | 379 kts | 262° |
| 2026-05-06 01:32 | 38.10397 | -81.72501 | 39873 ft | 377 kts | 262° |
| 2026-05-06 01:32 | 38.09063 | -81.78947 | 39888 ft | 378 kts | 262° |
| 2026-05-06 01:33 | 38.07721 | -81.85412 | 39890 ft | 378 kts | 262° |
| 2026-05-06 01:33 | 38.06372 | -81.91863 | 39882 ft | 377 kts | 262° |
| 2026-05-06 01:34 | 38.05033 | -81.98258 | 39882 ft | 377 kts | 262° |
| 2026-05-06 01:34 | 38.03683 | -82.04683 | 39882 ft | 376 kts | 262° |
| 2026-05-06 01:35 | 38.02333 | -82.11091 | 39885 ft | 376 kts | 262° |
| 2026-05-06 01:35 | 38.00981 | -82.17492 | 39874 ft | 376 kts | 262° |
| 2026-05-06 01:36 | 37.99625 | -82.23893 | 39879 ft | 376 kts | 262° |
| 2026-05-06 01:36 | 37.98263 | -82.30285 | 39872 ft | 375 kts | 262° |
| 2026-05-06 01:37 | 37.96915 | -82.36633 | 39875 ft | 375 kts | 262° |
| 2026-05-06 01:37 | 37.95550 | -82.43020 | 39878 ft | 375 kts | 261° |
| 2026-05-06 01:38 | 37.94183 | -82.49394 | 39873 ft | 374 kts | 262° |
| 2026-05-06 01:38 | 37.92812 | -82.55767 | 39878 ft | 375 kts | 262° |
| 2026-05-06 01:39 | 37.91440 | -82.62133 | 39890 ft | 374 kts | 262° |
| 2026-05-06 01:39 | 37.90074 | -82.68451 | 39888 ft | 374 kts | 262° |
| 2026-05-06 01:40 | 37.88693 | -82.74818 | 39887 ft | 374 kts | 262° |
| 2026-05-06 01:40 | 37.87312 | -82.81171 | 39881 ft | 374 kts | 262° |
| 2026-05-06 01:41 | 37.85928 | -82.87516 | 39880 ft | 373 kts | 262° |
| 2026-05-06 01:41 | 37.84543 | -82.93851 | 39878 ft | 373 kts | 261° |
| 2026-05-06 01:42 | 37.83163 | -83.00143 | 39877 ft | 373 kts | 262° |
| 2026-05-06 01:42 | 37.81773 | -83.06466 | 39872 ft | 373 kts | 262° |
| 2026-05-06 01:43 | 37.80382 | -83.12780 | 39878 ft | 372 kts | 261° |
| 2026-05-06 01:43 | 37.78987 | -83.19090 | 39894 ft | 371 kts | 261° |
| 2026-05-06 01:44 | 37.77397 | -83.25324 | 39882 ft | 377 kts | 255° |
| 2026-05-06 01:44 | 37.74831 | -83.31205 | 39875 ft | 383 kts | 249° |
| 2026-05-06 01:45 | 37.72134 | -83.36969 | 39885 ft | 383 kts | 249° |
| 2026-05-06 01:45 | 37.69435 | -83.42760 | 39888 ft | 382 kts | 249° |
| 2026-05-06 01:46 | 37.66743 | -83.48543 | 39579 ft | 377 kts | 250° |
| 2026-05-06 01:46 | 37.65425 | -83.51362 | 39345 ft | 369 kts | 250° |
| 2026-05-06 01:46 | 37.64137 | -83.54114 | 39094 ft | 361 kts | 250° |
| 2026-05-06 01:47 | 37.62872 | -83.56821 | 38856 ft | 353 kts | 250° |
| 2026-05-06 01:47 | 37.61636 | -83.59467 | 38621 ft | 346 kts | 251° |
| 2026-05-06 01:47 | 37.60425 | -83.62058 | 38343 ft | 339 kts | 251° |
| 2026-05-06 01:47 | 37.59252 | -83.64570 | 38079 ft | 333 kts | 251° |
| 2026-05-06 01:48 | 37.58087 | -83.67067 | 37796 ft | 327 kts | 251° |
| 2026-05-06 01:48 | 37.56942 | -83.69519 | 37528 ft | 322 kts | 251° |
| 2026-05-06 01:48 | 37.55816 | -83.71930 | 37253 ft | 319 kts | 251° |
| 2026-05-06 01:48 | 37.54676 | -83.74389 | 36996 ft | 331 kts | 251° |
| 2026-05-06 01:49 | 37.53495 | -83.76946 | 36743 ft | 343 kts | 250° |
| 2026-05-06 01:49 | 37.52267 | -83.79595 | 36514 ft | 357 kts | 250° |
| 2026-05-06 01:49 | 37.51008 | -83.82299 | 36281 ft | 369 kts | 249° |
| 2026-05-06 01:49 | 37.49686 | -83.85124 | 36039 ft | 379 kts | 249° |
| 2026-05-06 01:50 | 37.48334 | -83.87994 | 35785 ft | 380 kts | 249° |
| 2026-05-06 01:50 | 37.46976 | -83.90861 | 35542 ft | 380 kts | 248° |
| 2026-05-06 01:50 | 37.45620 | -83.93724 | 35284 ft | 380 kts | 248° |
| 2026-05-06 01:50 | 37.44269 | -83.96572 | 35051 ft | 379 kts | 248° |
| 2026-05-06 01:51 | 37.42921 | -83.99418 | 34806 ft | 378 kts | 248° |
| 2026-05-06 01:51 | 37.41576 | -84.02263 | 34573 ft | 377 kts | 248° |
| 2026-05-06 01:51 | 37.40253 | -84.05060 | 34334 ft | 377 kts | 248° |
| 2026-05-06 01:51 | 37.38916 | -84.07887 | 34106 ft | 376 kts | 248° |
| 2026-05-06 01:52 | 37.37577 | -84.10718 | 33876 ft | 376 kts | 248° |
| 2026-05-06 01:52 | 37.36239 | -84.13543 | 33608 ft | 377 kts | 247° |
| 2026-05-06 01:52 | 37.34892 | -84.16386 | 33344 ft | 378 kts | 247° |
| 2026-05-06 01:52 | 37.33545 | -84.19227 | 33089 ft | 380 kts | 247° |
| 2026-05-06 01:53 | 37.32186 | -84.22091 | 32792 ft | 382 kts | 247° |
| 2026-05-06 01:53 | 37.30817 | -84.24975 | 32533 ft | 385 kts | 246° |
| 2026-05-06 01:53 | 37.29439 | -84.27873 | 32291 ft | 388 kts | 246° |
| 2026-05-06 01:53 | 37.28051 | -84.30793 | 32041 ft | 390 kts | 246° |
| 2026-05-06 01:54 | 37.26658 | -84.33720 | 31793 ft | 392 kts | 246° |
| 2026-05-06 01:54 | 37.25267 | -84.36632 | 31550 ft | 394 kts | 245° |
| 2026-05-06 01:54 | 37.23860 | -84.39588 | 31302 ft | 395 kts | 245° |
| 2026-05-06 01:54 | 37.22445 | -84.42549 | 31057 ft | 396 kts | 245° |
| 2026-05-06 01:55 | 37.21020 | -84.45520 | 30822 ft | 397 kts | 245° |
| 2026-05-06 01:55 | 37.19594 | -84.48490 | 30583 ft | 398 kts | 245° |
| 2026-05-06 01:55 | 37.18167 | -84.51464 | 30347 ft | 398 kts | 245° |
| 2026-05-06 01:55 | 37.16733 | -84.54449 | 30110 ft | 399 kts | 245° |
| 2026-05-06 01:56 | 37.15300 | -84.57434 | 29864 ft | 400 kts | 244° |
| 2026-05-06 01:56 | 37.13862 | -84.60425 | 29593 ft | 401 kts | 244° |
| 2026-05-06 01:56 | 37.12436 | -84.63389 | 29326 ft | 401 kts | 244° |
| 2026-05-06 01:56 | 37.10990 | -84.66394 | 29026 ft | 402 kts | 244° |
| 2026-05-06 01:57 | 37.09533 | -84.69418 | 28747 ft | 405 kts | 244° |
| 2026-05-06 01:57 | 37.08066 | -84.72465 | 28494 ft | 410 kts | 244° |
| 2026-05-06 01:57 | 37.06586 | -84.75533 | 28225 ft | 413 kts | 244° |
| 2026-05-06 01:57 | 37.05100 | -84.78607 | 27962 ft | 412 kts | 244° |
| 2026-05-06 01:58 | 37.03613 | -84.81678 | 27706 ft | 412 kts | 243° |
| 2026-05-06 01:58 | 37.02124 | -84.84753 | 27475 ft | 413 kts | 243° |
| 2026-05-06 01:58 | 37.00633 | -84.87828 | 27219 ft | 413 kts | 243° |
| 2026-05-06 01:58 | 36.99139 | -84.90909 | 26972 ft | 414 kts | 243° |
| 2026-05-06 01:59 | 36.97663 | -84.93949 | 26731 ft | 415 kts | 243° |
| 2026-05-06 01:59 | 36.96162 | -84.97039 | 26481 ft | 416 kts | 243° |
| 2026-05-06 01:59 | 36.94657 | -85.00134 | 26235 ft | 416 kts | 243° |
| 2026-05-06 01:59 | 36.93163 | -85.03199 | 25985 ft | 410 kts | 243° |
| 2026-05-06 02:00 | 36.91688 | -85.06224 | 25751 ft | 407 kts | 243° |
| 2026-05-06 02:00 | 36.90217 | -85.09242 | 25501 ft | 407 kts | 243° |
| 2026-05-06 02:00 | 36.88745 | -85.12259 | 25250 ft | 407 kts | 243° |
| 2026-05-06 02:00 | 36.87282 | -85.15253 | 24999 ft | 397 kts | 243° |
| 2026-05-06 02:01 | 36.85861 | -85.18151 | 24757 ft | 385 kts | 243° |
| 2026-05-06 02:01 | 36.84480 | -85.20971 | 24514 ft | 375 kts | 243° |
| 2026-05-06 02:01 | 36.83137 | -85.23712 | 24280 ft | 367 kts | 243° |
| 2026-05-06 02:01 | 36.81804 | -85.26440 | 24064 ft | 370 kts | 242° |
| 2026-05-06 02:02 | 36.80476 | -85.29154 | 23829 ft | 369 kts | 242° |
| 2026-05-06 02:02 | 36.79147 | -85.31861 | 23463 ft | 363 kts | 242° |
| 2026-05-06 02:02 | 36.77834 | -85.34537 | 22922 ft | 361 kts | 242° |
| 2026-05-06 02:02 | 36.76528 | -85.37192 | 22412 ft | 357 kts | 242° |
| 2026-05-06 02:03 | 36.75237 | -85.39814 | 21911 ft | 353 kts | 242° |
| 2026-05-06 02:03 | 36.73972 | -85.42425 | 21453 ft | 349 kts | 242° |
| 2026-05-06 02:03 | 36.72743 | -85.45033 | 21018 ft | 347 kts | 243° |
| 2026-05-06 02:03 | 36.71534 | -85.47619 | 20577 ft | 344 kts | 243° |
| 2026-05-06 02:04 | 36.70335 | -85.50183 | 20136 ft | 341 kts | 243° |
| 2026-05-06 02:04 | 36.69142 | -85.52729 | 19705 ft | 339 kts | 242° |
| 2026-05-06 02:04 | 36.67950 | -85.55268 | 19278 ft | 340 kts | 242° |
| 2026-05-06 02:04 | 36.66753 | -85.57812 | 18827 ft | 340 kts | 242° |
| 2026-05-06 02:05 | 36.65559 | -85.60344 | 18388 ft | 338 kts | 242° |
| 2026-05-06 02:05 | 36.64771 | -85.62014 | 18092 ft | 337 kts | 242° |
| 2026-05-06 02:05 | 36.63196 | -85.65349 | 17454 ft | 335 kts | 242° |
| 2026-05-06 02:05 | 36.62019 | -85.67838 | 17019 ft | 332 kts | 242° |
| 2026-05-06 02:06 | 36.60858 | -85.70290 | 16657 ft | 327 kts | 242° |
| 2026-05-06 02:06 | 36.59709 | -85.72720 | 16247 ft | 324 kts | 242° |
| 2026-05-06 02:06 | 36.58934 | -85.74356 | 15965 ft | 323 kts | 242° |
| 2026-05-06 02:06 | 36.57797 | -85.76753 | 15558 ft | 321 kts | 242° |
| 2026-05-06 02:07 | 36.56679 | -85.79110 | 15164 ft | 320 kts | 242° |
| 2026-05-06 02:07 | 36.55554 | -85.81478 | 14751 ft | 316 kts | 242° |
| 2026-05-06 02:07 | 36.54445 | -85.83810 | 14354 ft | 312 kts | 242° |
| 2026-05-06 02:07 | 36.53347 | -85.86121 | 13958 ft | 308 kts | 242° |
| 2026-05-06 02:08 | 36.52253 | -85.88420 | 13527 ft | 306 kts | 242° |
| 2026-05-06 02:08 | 36.51175 | -85.90686 | 13088 ft | 303 kts | 242° |
| 2026-05-06 02:08 | 36.50111 | -85.92922 | 12694 ft | 299 kts | 241° |
| 2026-05-06 02:08 | 36.49054 | -85.95137 | 12295 ft | 296 kts | 241° |
| 2026-05-06 02:09 | 36.48024 | -85.97296 | 11924 ft | 293 kts | 241° |
| 2026-05-06 02:09 | 36.46990 | -85.99465 | 11526 ft | 291 kts | 241° |
| 2026-05-06 02:09 | 36.45972 | -86.01595 | 11129 ft | 282 kts | 241° |
| 2026-05-06 02:09 | 36.44982 | -86.03663 | 10746 ft | 273 kts | 241° |
| 2026-05-06 02:10 | 36.44026 | -86.05660 | 10394 ft | 263 kts | 241° |
| 2026-05-06 02:10 | 36.43112 | -86.07582 | 10043 ft | 257 kts | 241° |
| 2026-05-06 02:10 | 36.42206 | -86.09471 | 9934 ft | 248 kts | 241° |
| 2026-05-06 02:10 | 36.41312 | -86.11333 | 9427 ft | 254 kts | 241° |
| 2026-05-06 02:11 | 36.40411 | -86.13210 | 8999 ft | 251 kts | 241° |
| 2026-05-06 02:11 | 36.39786 | -86.15163 | 8648 ft | 240 kts | 261° |
| 2026-05-06 02:11 | 36.39727 | -86.17202 | 8331 ft | 236 kts | 274° |
| 2026-05-06 02:11 | 36.40114 | -86.19184 | 8017 ft | 239 kts | 282° |
| 2026-05-06 02:12 | 36.40633 | -86.21149 | 7679 ft | 240 kts | 283° |
| 2026-05-06 02:12 | 36.41072 | -86.23106 | 7351 ft | 234 kts | 275° |
| 2026-05-06 02:12 | 36.41181 | -86.25109 | 7052 ft | 229 kts | 264° |
| 2026-05-06 02:12 | 36.40969 | -86.27042 | 6729 ft | 229 kts | 256° |
| 2026-05-06 02:13 | 36.40647 | -86.28987 | 6405 ft | 231 kts | 256° |
| 2026-05-06 02:13 | 36.40313 | -86.30939 | 6063 ft | 232 kts | 255° |
| 2026-05-06 02:13 | 36.39980 | -86.32899 | 5720 ft | 233 kts | 255° |
| 2026-05-06 02:13 | 36.39653 | -86.34879 | 5371 ft | 234 kts | 255° |
| 2026-05-06 02:14 | 36.39342 | -86.36850 | 5020 ft | 230 kts | 255° |
| 2026-05-06 02:14 | 36.39062 | -86.38773 | 4666 ft | 219 kts | 255° |
| 2026-05-06 02:14 | 36.38824 | -86.40580 | 4334 ft | 205 kts | 255° |
| 2026-05-06 02:14 | 36.38625 | -86.42266 | 4064 ft | 188 kts | 255° |
| 2026-05-06 02:15 | 36.38466 | -86.43821 | 4015 ft | 182 kts | 255° |
| 2026-05-06 02:15 | 36.38318 | -86.45353 | 4008 ft | 177 kts | 255° |
| 2026-05-06 02:15 | 36.38178 | -86.46859 | 4002 ft | 174 kts | 256° |
| 2026-05-06 02:15 | 36.38037 | -86.48360 | 4004 ft | 175 kts | 256° |
| 2026-05-06 02:16 | 36.37797 | -86.49823 | 3975 ft | 170 kts | 245° |
| 2026-05-06 02:16 | 36.37275 | -86.51092 | 3745 ft | 161 kts | 230° |
| 2026-05-06 02:16 | 36.36574 | -86.52161 | 3287 ft | 160 kts | 225° |
| 2026-05-06 02:16 | 36.35859 | -86.53226 | 3108 ft | 160 kts | 225° |
| 2026-05-06 02:17 | 36.35173 | -86.54274 | 3022 ft | 155 kts | 225° |
| 2026-05-06 02:17 | 36.34486 | -86.55319 | 3007 ft | 157 kts | 226° |
| 2026-05-06 02:17 | 36.33787 | -86.56360 | 3006 ft | 157 kts | 225° |
| 2026-05-06 02:17 | 36.33089 | -86.57397 | 3004 ft | 156 kts | 225° |
| 2026-05-06 02:18 | 36.32251 | -86.58147 | 2995 ft | 150 kts | 199° |
| 2026-05-06 02:18 | 36.31280 | -86.58594 | 2982 ft | 147 kts | 202° |
| 2026-05-06 02:18 | 36.30333 | -86.59051 | 2976 ft | 143 kts | 200° |
| 2026-05-06 02:18 | 36.29461 | -86.59433 | 2969 ft | 123 kts | 199° |
| 2026-05-06 02:19 | 36.28687 | -86.59758 | 2994 ft | 120 kts | 199° |
| 2026-05-06 02:19 | 36.27888 | -86.60086 | 2991 ft | 121 kts | 199° |
| 2026-05-06 02:19 | 36.27094 | -86.60407 | 2982 ft | 119 kts | 199° |
| 2026-05-06 02:19 | 36.26310 | -86.60723 | 2986 ft | 118 kts | 200° |
| 2026-05-06 02:20 | 36.24717 | -86.61365 | 2874 ft | 122 kts | 200° |
| 2026-05-06 02:20 | 36.23912 | -86.61688 | 2723 ft | 120 kts | 198° |
| 2026-05-06 02:20 | 36.23134 | -86.62000 | 2577 ft | 117 kts | 197° |
| 2026-05-06 02:21 | 36.22346 | -86.62318 | 2429 ft | 122 kts | 197° |
| 2026-05-06 02:21 | 36.21539 | -86.62643 | 2263 ft | 122 kts | 198° |
| 2026-05-06 02:21 | 36.20730 | -86.62968 | 2077 ft | 122 kts | 197° |
| 2026-05-06 02:21 | 36.19924 | -86.63292 | 1932 ft | 124 kts | 195° |
| 2026-05-06 02:22 | 36.19091 | -86.63624 | 1777 ft | 127 kts | 196° |
| 2026-05-06 02:22 | 36.18238 | -86.63967 | 1578 ft | 130 kts | 197° |
| 2026-05-06 02:22 | 36.17369 | -86.64316 | 1417 ft | 133 kts | 197° |
| 2026-05-06 02:22 | 36.16483 | -86.64684 | 1252 ft | 136 kts | 197° |
| 2026-05-06 02:23 | 36.15556 | -86.65029 | 1085 ft | 138 kts | 197° |
| 2026-05-06 02:23 | 36.14650 | -86.65411 | 898 ft | 139 kts | 198° |
| 2026-05-06 02:23 | 36.13720 | -86.65782 | 686 ft | 141 kts | 200° |
| 2026-05-06 02:23 | 36.12817 | -86.66150 | 578 ft | 127 kts | 197° |
| 2026-05-06 02:24 | 36.12080 | -86.66436 | 582 ft | 90 kts | 198° |
| 2026-05-06 02:24 | 36.11690 | -86.66592 | 598 ft | 15 kts | 202° |
| 2026-05-06 02:24 | 36.11661 | -86.66636 | 600 ft | 8 kts | 247° |
| 2026-05-06 02:24 | 36.11660 | -86.66711 | 598 ft | 10 kts | 290° |
| 2026-05-06 02:25 | 36.11673 | -86.66730 | 596 ft | 0 kts | 323° |
| 2026-05-06 02:25 | 36.11706 | -86.66733 | 594 ft | 9 kts | 9° |
| 2026-05-06 02:26 | 36.11780 | -86.66705 | 590 ft | 14 kts | 19° |
| 2026-05-06 02:26 | 36.11889 | -86.66660 | 583 ft | 24 kts | 18° |
| 2026-05-06 02:26 | 36.12106 | -86.66575 | 575 ft | 35 kts | 18° |
| 2026-05-06 02:26 | 36.12268 | -86.66534 | 575 ft | 12 kts | 323° |
| 2026-05-06 02:27 | 36.12294 | -86.66602 | 572 ft | 0 kts | 287° |
| 2026-05-06 02:27 | 36.12304 | -86.66637 | 569 ft | 11 kts | 290° |
| 2026-05-06 02:27 | 36.12333 | -86.66747 | 563 ft | 16 kts | 286° |
| 2026-05-06 02:27 | 36.12386 | -86.66875 | 562 ft | 17 kts | 310° |
| 2026-05-06 02:28 | 36.12460 | -86.66955 | 562 ft | 9 kts | 355° |
| 2026-05-06 02:28 | 36.12524 | -86.66926 | 567 ft | 10 kts | 28° |
| 2026-05-06 02:28 | 36.12590 | -86.66911 | 568 ft | 10 kts | 353° |
| 2026-05-06 02:28 | 36.12653 | -86.66941 | 568 ft | 10 kts | 334° |
| 2026-05-06 02:29 | 36.12692 | -86.66950 | 569 ft | 0 kts | 7° |
| 2026-05-06 02:30 | 36.12694 | -86.66950 | 569 ft | 4 kts | 7° |
| 2026-05-06 02:30 | 36.12723 | -86.66943 | 569 ft | 0 kts | 17° |